sensor_id;sensor_type;location;lat;lon;timestamp;temperature;humidity
16038;DHT22;8123;50.906;6.172;2022-09-30T00:01:05;7.80;99.90
16038;DHT22;8123;50.906;6.172;2022-09-30T00:03:31;7.70;99.90
16038;DHT22;8123;50.906;6.172;2022-09-30T00:06:02;7.70;99.90
16038;DHT22;8123;50.906;6.172;2022-09-30T00:08:28;7.90;99.90
16038;DHT22;8123;50.906;6.172;2022-09-30T00:11:15;8.00;99.90
16038;DHT22;8123;50.906;6.172;2022-09-30T00:13:43;7.90;99.90
16038;DHT22;8123;50.906;6.172;2022-09-30T00:16:10;7.70;99.90
16038;DHT22;8123;50.906;6.172;2022-09-30T00:18:38;7.90;99.90
16038;DHT22;8123;50.906;6.172;2022-09-30T00:21:05;8.00;99.90
16038;DHT22;8123;50.906;6.172;2022-09-30T00:23:31;7.70;99.90
16038;DHT22;8123;50.906;6.172;2022-09-30T00:26:01;8.10;99.90
16038;DHT22;8123;50.906;6.172;2022-09-30T00:28:29;8.00;99.90
16038;DHT22;8123;50.906;6.172;2022-09-30T00:31:03;7.70;99.90
16038;DHT22;8123;50.906;6.172;2022-09-30T00:33:33;7.70;99.90
16038;DHT22;8123;50.906;6.172;2022-09-30T00:35:59;7.70;99.90
16038;DHT22;8123;50.906;6.172;2022-09-30T00:38:25;7.70;99.90
16038;DHT22;8123;50.906;6.172;2022-09-30T00:40:51;8.10;99.90
16038;DHT22;8123;50.906;6.172;2022-09-30T00:43:20;7.70;99.90
16038;DHT22;8123;50.906;6.172;2022-09-30T00:46:02;7.70;99.90
16038;DHT22;8123;50.906;6.172;2022-09-30T00:48:33;7.70;99.90
16038;DHT22;8123;50.906;6.172;2022-09-30T00:51:01;7.80;99.90
16038;DHT22;8123;50.906;6.172;2022-09-30T00:53:43;7.60;99.90
16038;DHT22;8123;50.906;6.172;2022-09-30T00:56:15;8.00;99.90
16038;DHT22;8123;50.906;6.172;2022-09-30T01:01:24;7.60;99.90
16038;DHT22;8123;50.906;6.172;2022-09-30T01:03:53;7.70;99.90
16038;DHT22;8123;50.906;6.172;2022-09-30T01:06:22;7.60;99.90
16038;DHT22;8123;50.906;6.172;2022-09-30T01:08:48;7.60;99.90
16038;DHT22;8123;50.906;6.172;2022-09-30T01:11:15;7.80;99.90
16038;DHT22;8123;50.906;6.172;2022-09-30T01:13:41;7.60;99.90
16038;DHT22;8123;50.906;6.172;2022-09-30T01:19:23;7.80;99.90
16038;DHT22;8123;50.906;6.172;2022-09-30T01:24:46;7.50;99.90
16038;DHT22;8123;50.906;6.172;2022-09-30T01:32:53;7.80;99.90
16038;DHT22;8123;50.906;6.172;2022-09-30T01:38:32;7.40;99.90
16038;DHT22;8123;50.906;6.172;2022-09-30T01:41:11;7.30;99.90
16038;DHT22;8123;50.906;6.172;2022-09-30T01:43:51;7.20;99.90
16038;DHT22;8123;50.906;6.172;2022-09-30T01:46:58;7.30;99.90
16038;DHT22;8123;50.906;6.172;2022-09-30T01:52:04;7.20;99.90
16038;DHT22;8123;50.906;6.172;2022-09-30T01:54:51;7.20;99.90
16038;DHT22;8123;50.906;6.172;2022-09-30T01:57:31;7.10;99.90
16038;DHT22;8123;50.906;6.172;2022-09-30T02:00:10;7.10;99.90
16038;DHT22;8123;50.906;6.172;2022-09-30T02:03:01;7.10;99.90
16038;DHT22;8123;50.906;6.172;2022-09-30T02:05:38;7.00;99.90
16038;DHT22;8123;50.906;6.172;2022-09-30T02:08:13;7.20;99.90
16038;DHT22;8123;50.906;6.172;2022-09-30T02:10:46;7.00;99.90
16038;DHT22;8123;50.906;6.172;2022-09-30T02:13:21;7.10;99.90
16038;DHT22;8123;50.906;6.172;2022-09-30T02:16:03;7.00;99.90
16038;DHT22;8123;50.906;6.172;2022-09-30T02:18:59;7.30;99.90
16038;DHT22;8123;50.906;6.172;2022-09-30T02:21:31;7.30;99.90
16038;DHT22;8123;50.906;6.172;2022-09-30T02:24:02;7.10;99.90
16038;DHT22;8123;50.906;6.172;2022-09-30T02:26:36;7.10;99.90
16038;DHT22;8123;50.906;6.172;2022-09-30T02:29:24;7.10;99.90
16038;DHT22;8123;50.906;6.172;2022-09-30T02:31:55;7.00;99.90
16038;DHT22;8123;50.906;6.172;2022-09-30T02:34:44;7.30;99.90
16038;DHT22;8123;50.906;6.172;2022-09-30T02:37:27;6.90;99.90
16038;DHT22;8123;50.906;6.172;2022-09-30T02:40:05;6.90;99.90
16038;DHT22;8123;50.906;6.172;2022-09-30T02:42:32;6.90;99.90
16038;DHT22;8123;50.906;6.172;2022-09-30T02:45:05;7.00;99.90
16038;DHT22;8123;50.906;6.172;2022-09-30T02:50:27;6.90;99.90
16038;DHT22;8123;50.906;6.172;2022-09-30T02:58:29;6.90;99.90
16038;DHT22;8123;50.906;6.172;2022-09-30T03:00:56;6.90;99.90
16038;DHT22;8123;50.906;6.172;2022-09-30T03:03:30;6.90;99.90
16038;DHT22;8123;50.906;6.172;2022-09-30T03:05:56;6.90;99.90
16038;DHT22;8123;50.906;6.172;2022-09-30T03:08:22;6.90;99.90
16038;DHT22;8123;50.906;6.172;2022-09-30T03:10:50;6.90;99.90
16038;DHT22;8123;50.906;6.172;2022-09-30T03:30:14;6.80;99.90
16038;DHT22;8123;50.906;6.172;2022-09-30T03:32:45;6.80;99.90
16038;DHT22;8123;50.906;6.172;2022-09-30T03:40:26;6.90;99.90
16038;DHT22;8123;50.906;6.172;2022-09-30T03:43:04;7.00;99.90
16038;DHT22;8123;50.906;6.172;2022-09-30T03:46:22;6.80;99.90
16038;DHT22;8123;50.906;6.172;2022-09-30T03:48:32;6.80;99.90
16038;DHT22;8123;50.906;6.172;2022-09-30T03:51:00;6.70;99.90
16038;DHT22;8123;50.906;6.172;2022-09-30T03:53:26;6.70;99.90
16038;DHT22;8123;50.906;6.172;2022-09-30T03:55:53;6.70;99.90
16038;DHT22;8123;50.906;6.172;2022-09-30T03:58:20;6.70;99.90
16038;DHT22;8123;50.906;6.172;2022-09-30T04:00:52;7.20;99.90
16038;DHT22;8123;50.906;6.172;2022-09-30T04:03:20;6.90;99.90
16038;DHT22;8123;50.906;6.172;2022-09-30T04:05:46;7.00;99.90
16038;DHT22;8123;50.906;6.172;2022-09-30T04:08:13;7.20;99.90
16038;DHT22;8123;50.906;6.172;2022-09-30T04:10:40;7.00;99.90
16038;DHT22;8123;50.906;6.172;2022-09-30T04:13:06;6.80;99.90
16038;DHT22;8123;50.906;6.172;2022-09-30T04:15:33;7.10;99.90
16038;DHT22;8123;50.906;6.172;2022-09-30T04:17:59;6.80;99.90
16038;DHT22;8123;50.906;6.172;2022-09-30T04:20:25;7.10;99.90
16038;DHT22;8123;50.906;6.172;2022-09-30T04:22:50;7.00;99.90
16038;DHT22;8123;50.906;6.172;2022-09-30T04:25:16;6.90;99.90
16038;DHT22;8123;50.906;6.172;2022-09-30T04:27:41;6.80;99.90
16038;DHT22;8123;50.906;6.172;2022-09-30T04:30:07;7.00;99.90
16038;DHT22;8123;50.906;6.172;2022-09-30T04:32:33;6.80;99.90
16038;DHT22;8123;50.906;6.172;2022-09-30T04:34:59;6.80;99.90
16038;DHT22;8123;50.906;6.172;2022-09-30T04:37:25;7.10;99.90
16038;DHT22;8123;50.906;6.172;2022-09-30T04:39:50;7.10;99.90
16038;DHT22;8123;50.906;6.172;2022-09-30T04:42:16;7.10;99.90
16038;DHT22;8123;50.906;6.172;2022-09-30T04:44:42;6.80;99.90
16038;DHT22;8123;50.906;6.172;2022-09-30T04:47:08;7.20;99.90
16038;DHT22;8123;50.906;6.172;2022-09-30T04:49:34;6.90;99.90
16038;DHT22;8123;50.906;6.172;2022-09-30T04:52:00;7.20;99.90
16038;DHT22;8123;50.906;6.172;2022-09-30T04:54:25;6.80;99.90
16038;DHT22;8123;50.906;6.172;2022-09-30T04:56:51;6.80;99.90
16038;DHT22;8123;50.906;6.172;2022-09-30T04:59:17;7.20;99.90
16038;DHT22;8123;50.906;6.172;2022-09-30T05:01:42;6.80;99.90
16038;DHT22;8123;50.906;6.172;2022-09-30T05:04:09;6.90;99.90
16038;DHT22;8123;50.906;6.172;2022-09-30T05:06:37;7.10;99.90
16038;DHT22;8123;50.906;6.172;2022-09-30T05:09:05;6.80;99.90
16038;DHT22;8123;50.906;6.172;2022-09-30T05:11:31;6.80;99.90
16038;DHT22;8123;50.906;6.172;2022-09-30T05:13:56;6.90;99.90
16038;DHT22;8123;50.906;6.172;2022-09-30T05:16:22;6.90;99.90
16038;DHT22;8123;50.906;6.172;2022-09-30T05:18:48;7.20;99.90
16038;DHT22;8123;50.906;6.172;2022-09-30T05:21:16;6.80;99.90
16038;DHT22;8123;50.906;6.172;2022-09-30T05:23:43;7.20;99.90
16038;DHT22;8123;50.906;6.172;2022-09-30T05:26:09;6.80;99.90
16038;DHT22;8123;50.906;6.172;2022-09-30T05:28:35;6.80;99.90
16038;DHT22;8123;50.906;6.172;2022-09-30T05:31:03;6.70;99.90
16038;DHT22;8123;50.906;6.172;2022-09-30T05:33:31;6.70;99.90
16038;DHT22;8123;50.906;6.172;2022-09-30T05:36:02;7.40;99.90
16038;DHT22;8123;50.906;6.172;2022-09-30T05:38:29;7.00;99.90
16038;DHT22;8123;50.906;6.172;2022-09-30T05:40:55;7.10;99.90
16038;DHT22;8123;50.906;6.172;2022-09-30T05:43:21;7.10;99.90
16038;DHT22;8123;50.906;6.172;2022-09-30T05:45:56;6.80;99.90
16038;DHT22;8123;50.906;6.172;2022-09-30T05:48:23;6.90;99.90
16038;DHT22;8123;50.906;6.172;2022-09-30T05:50:54;6.90;99.90
16038;DHT22;8123;50.906;6.172;2022-09-30T05:53:19;7.00;99.90
16038;DHT22;8123;50.906;6.172;2022-09-30T05:55:46;6.80;99.90
16038;DHT22;8123;50.906;6.172;2022-09-30T05:58:13;6.90;99.90
16038;DHT22;8123;50.906;6.172;2022-09-30T06:00:43;6.50;99.90
16038;DHT22;8123;50.906;6.172;2022-09-30T06:03:09;7.40;99.90
16038;DHT22;8123;50.906;6.172;2022-09-30T06:05:36;6.80;99.90
16038;DHT22;8123;50.906;6.172;2022-09-30T06:08:02;6.80;99.90
16038;DHT22;8123;50.906;6.172;2022-09-30T06:10:28;6.80;99.90
16038;DHT22;8123;50.906;6.172;2022-09-30T06:12:54;7.20;99.90
16038;DHT22;8123;50.906;6.172;2022-09-30T06:15:20;6.90;99.90
16038;DHT22;8123;50.906;6.172;2022-09-30T06:17:51;7.00;99.90
16038;DHT22;8123;50.906;6.172;2022-09-30T06:20:17;6.90;99.90
16038;DHT22;8123;50.906;6.172;2022-09-30T06:22:42;7.00;99.90
16038;DHT22;8123;50.906;6.172;2022-09-30T06:25:09;7.40;99.90
16038;DHT22;8123;50.906;6.172;2022-09-30T06:27:34;7.10;99.90
16038;DHT22;8123;50.906;6.172;2022-09-30T06:30:03;7.40;99.90
16038;DHT22;8123;50.906;6.172;2022-09-30T06:32:29;7.30;99.90
16038;DHT22;8123;50.906;6.172;2022-09-30T06:34:55;7.50;99.90
16038;DHT22;8123;50.906;6.172;2022-09-30T06:37:24;7.40;99.90
16038;DHT22;8123;50.906;6.172;2022-09-30T06:39:50;7.40;99.90
16038;DHT22;8123;50.906;6.172;2022-09-30T06:42:16;7.50;99.90
16038;DHT22;8123;50.906;6.172;2022-09-30T06:44:44;7.80;99.90
16038;DHT22;8123;50.906;6.172;2022-09-30T06:47:11;7.60;99.90
16038;DHT22;8123;50.906;6.172;2022-09-30T06:49:37;7.70;99.90
16038;DHT22;8123;50.906;6.172;2022-09-30T06:52:02;7.90;99.90
16038;DHT22;8123;50.906;6.172;2022-09-30T06:54:28;7.80;99.90
16038;DHT22;8123;50.906;6.172;2022-09-30T06:56:54;7.90;99.90
16038;DHT22;8123;50.906;6.172;2022-09-30T06:59:22;7.90;99.90
16038;DHT22;8123;50.906;6.172;2022-09-30T07:01:48;8.00;99.90
16038;DHT22;8123;50.906;6.172;2022-09-30T07:04:14;8.10;99.90
16038;DHT22;8123;50.906;6.172;2022-09-30T07:06:42;8.20;99.90
16038;DHT22;8123;50.906;6.172;2022-09-30T07:09:09;8.30;99.90
16038;DHT22;8123;50.906;6.172;2022-09-30T07:11:36;8.30;99.90
16038;DHT22;8123;50.906;6.172;2022-09-30T07:14:02;8.60;99.90
16038;DHT22;8123;50.906;6.172;2022-09-30T07:16:29;8.50;99.90
16038;DHT22;8123;50.906;6.172;2022-09-30T07:18:56;8.50;99.90
16038;DHT22;8123;50.906;6.172;2022-09-30T07:21:23;8.70;99.90
16038;DHT22;8123;50.906;6.172;2022-09-30T07:23:49;8.80;99.90
16038;DHT22;8123;50.906;6.172;2022-09-30T07:26:22;8.90;99.90
16038;DHT22;8123;50.906;6.172;2022-09-30T07:28:48;9.00;99.90
16038;DHT22;8123;50.906;6.172;2022-09-30T07:31:23;9.20;99.90
16038;DHT22;8123;50.906;6.172;2022-09-30T07:33:50;9.20;99.90
16038;DHT22;8123;50.906;6.172;2022-09-30T07:36:20;9.30;99.90
16038;DHT22;8123;50.906;6.172;2022-09-30T07:38:51;9.40;99.90
16038;DHT22;8123;50.906;6.172;2022-09-30T07:41:19;9.50;99.90
16038;DHT22;8123;50.906;6.172;2022-09-30T07:43:48;9.60;99.90
16038;DHT22;8123;50.906;6.172;2022-09-30T07:46:21;9.70;99.90
16038;DHT22;8123;50.906;6.172;2022-09-30T07:48:50;9.90;99.90
16038;DHT22;8123;50.906;6.172;2022-09-30T07:51:28;9.90;99.90
16038;DHT22;8123;50.906;6.172;2022-09-30T07:54:04;10.00;99.90
16038;DHT22;8123;50.906;6.172;2022-09-30T07:56:32;10.10;99.90
16038;DHT22;8123;50.906;6.172;2022-09-30T07:59:00;10.20;99.90
16038;DHT22;8123;50.906;6.172;2022-09-30T08:01:29;10.30;99.90
16038;DHT22;8123;50.906;6.172;2022-09-30T08:03:58;10.30;99.90
16038;DHT22;8123;50.906;6.172;2022-09-30T08:06:24;10.40;99.90
16038;DHT22;8123;50.906;6.172;2022-09-30T08:08:53;10.50;99.90
16038;DHT22;8123;50.906;6.172;2022-09-30T08:11:19;10.60;99.90
16038;DHT22;8123;50.906;6.172;2022-09-30T08:13:50;10.60;99.90
16038;DHT22;8123;50.906;6.172;2022-09-30T08:16:16;10.60;99.90
16038;DHT22;8123;50.906;6.172;2022-09-30T08:18:41;11.00;99.90
16038;DHT22;8123;50.906;6.172;2022-09-30T08:21:07;10.80;99.90
16038;DHT22;8123;50.906;6.172;2022-09-30T08:23:33;10.80;99.90
16038;DHT22;8123;50.906;6.172;2022-09-30T08:26:05;10.90;99.90
16038;DHT22;8123;50.906;6.172;2022-09-30T08:28:31;11.00;99.90
16038;DHT22;8123;50.906;6.172;2022-09-30T08:33:31;11.10;99.90
16038;DHT22;8123;50.906;6.172;2022-09-30T08:36:19;11.20;99.90
16038;DHT22;8123;50.906;6.172;2022-09-30T08:38:46;11.30;99.90
16038;DHT22;8123;50.906;6.172;2022-09-30T08:41:52;11.50;99.90
16038;DHT22;8123;50.906;6.172;2022-09-30T08:44:43;11.40;99.90
16038;DHT22;8123;50.906;6.172;2022-09-30T08:52:23;11.70;99.90
16038;DHT22;8123;50.906;6.172;2022-09-30T08:54:52;11.70;99.90
16038;DHT22;8123;50.906;6.172;2022-09-30T08:57:19;11.80;99.90
16038;DHT22;8123;50.906;6.172;2022-09-30T08:59:49;11.90;99.90
16038;DHT22;8123;50.906;6.172;2022-09-30T09:02:42;12.00;99.90
16038;DHT22;8123;50.906;6.172;2022-09-30T09:05:24;12.30;99.90
16038;DHT22;8123;50.906;6.172;2022-09-30T09:10:43;12.20;99.90
16038;DHT22;8123;50.906;6.172;2022-09-30T09:13:21;12.20;99.90
16038;DHT22;8123;50.906;6.172;2022-09-30T09:21:22;12.40;99.90
16038;DHT22;8123;50.906;6.172;2022-09-30T09:23:53;12.50;99.90
16038;DHT22;8123;50.906;6.172;2022-09-30T09:26:21;12.50;99.90
16038;DHT22;8123;50.906;6.172;2022-09-30T09:29:16;12.50;99.90
16038;DHT22;8123;50.906;6.172;2022-09-30T09:31:42;12.60;99.90
16038;DHT22;8123;50.906;6.172;2022-09-30T09:34:10;12.70;99.90
16038;DHT22;8123;50.906;6.172;2022-09-30T09:40:02;12.80;99.90
16038;DHT22;8123;50.906;6.172;2022-09-30T09:45:17;12.90;99.90
16038;DHT22;8123;50.906;6.172;2022-09-30T09:47:50;12.90;99.90
16038;DHT22;8123;50.906;6.172;2022-09-30T09:50:24;13.00;99.90
16038;DHT22;8123;50.906;6.172;2022-09-30T09:55:54;13.00;99.90
16038;DHT22;8123;50.906;6.172;2022-09-30T09:58:23;13.10;99.90
16038;DHT22;8123;50.906;6.172;2022-09-30T10:00:50;13.20;99.90
16038;DHT22;8123;50.906;6.172;2022-09-30T10:03:24;13.20;99.90
16038;DHT22;8123;50.906;6.172;2022-09-30T10:08:25;13.20;99.90
16038;DHT22;8123;50.906;6.172;2022-09-30T10:10:53;13.20;99.90
16038;DHT22;8123;50.906;6.172;2022-09-30T10:13:22;13.30;99.90
16038;DHT22;8123;50.906;6.172;2022-09-30T10:15:50;13.40;99.90
16038;DHT22;8123;50.906;6.172;2022-09-30T10:18:21;13.40;99.90
16038;DHT22;8123;50.906;6.172;2022-09-30T10:21:20;13.40;99.90
16038;DHT22;8123;50.906;6.172;2022-09-30T10:23:46;13.50;99.90
16038;DHT22;8123;50.906;6.172;2022-09-30T10:26:27;13.60;99.90
16038;DHT22;8123;50.906;6.172;2022-09-30T10:28:54;13.60;99.90
16038;DHT22;8123;50.906;6.172;2022-09-30T10:31:37;13.60;99.90
16038;DHT22;8123;50.906;6.172;2022-09-30T10:34:25;13.60;99.90
16038;DHT22;8123;50.906;6.172;2022-09-30T10:36:53;13.70;99.90
16038;DHT22;8123;50.906;6.172;2022-09-30T10:41:58;13.70;99.90
16038;DHT22;8123;50.906;6.172;2022-09-30T10:44:25;13.70;99.90
16038;DHT22;8123;50.906;6.172;2022-09-30T10:46:52;13.70;99.90
16038;DHT22;8123;50.906;6.172;2022-09-30T10:49:35;13.70;99.90
16038;DHT22;8123;50.906;6.172;2022-09-30T10:52:04;13.70;99.90
16038;DHT22;8123;50.906;6.172;2022-09-30T10:57:12;13.70;99.90
16038;DHT22;8123;50.906;6.172;2022-09-30T10:59:39;13.90;99.90
16038;DHT22;8123;50.906;6.172;2022-09-30T11:02:29;14.10;99.90
16038;DHT22;8123;50.906;6.172;2022-09-30T11:05:49;14.20;99.90
16038;DHT22;8123;50.906;6.172;2022-09-30T11:11:19;14.50;99.90
16038;DHT22;8123;50.906;6.172;2022-09-30T11:13:58;14.50;99.90
16038;DHT22;8123;50.906;6.172;2022-09-30T11:16:28;14.50;99.90
16038;DHT22;8123;50.906;6.172;2022-09-30T11:22:03;14.50;99.90
16038;DHT22;8123;50.906;6.172;2022-09-30T11:24:47;14.50;99.90
16038;DHT22;8123;50.906;6.172;2022-09-30T11:27:28;14.50;99.90
16038;DHT22;8123;50.906;6.172;2022-09-30T11:30:17;14.50;99.90
16038;DHT22;8123;50.906;6.172;2022-09-30T11:40:53;14.50;99.90
16038;DHT22;8123;50.906;6.172;2022-09-30T11:49:04;14.70;99.90
16038;DHT22;8123;50.906;6.172;2022-09-30T12:05:01;15.00;99.90
16038;DHT22;8123;50.906;6.172;2022-09-30T12:07:43;15.10;99.90
16038;DHT22;8123;50.906;6.172;2022-09-30T12:10:32;15.10;99.90
16038;DHT22;8123;50.906;6.172;2022-09-30T12:13:09;15.10;99.90
16038;DHT22;8123;50.906;6.172;2022-09-30T12:15:39;15.00;99.90
16038;DHT22;8123;50.906;6.172;2022-09-30T12:18:12;15.10;99.90
16038;DHT22;8123;50.906;6.172;2022-09-30T12:24:00;15.10;99.90
16038;DHT22;8123;50.906;6.172;2022-09-30T12:26:27;15.10;99.90
16038;DHT22;8123;50.906;6.172;2022-09-30T12:29:05;15.00;99.90
16038;DHT22;8123;50.906;6.172;2022-09-30T12:47:43;15.30;99.90
16038;DHT22;8123;50.906;6.172;2022-09-30T12:50:14;15.30;99.90
16038;DHT22;8123;50.906;6.172;2022-09-30T12:52:41;15.30;99.90
16038;DHT22;8123;50.906;6.172;2022-09-30T12:55:26;15.40;99.90
16038;DHT22;8123;50.906;6.172;2022-09-30T12:57:56;15.50;99.90
16038;DHT22;8123;50.906;6.172;2022-09-30T13:00:25;15.50;99.90
16038;DHT22;8123;50.906;6.172;2022-09-30T13:02:58;15.50;99.90
16038;DHT22;8123;50.906;6.172;2022-09-30T13:10:50;15.40;99.90
16038;DHT22;8123;50.906;6.172;2022-09-30T13:13:20;15.50;99.90
16038;DHT22;8123;50.906;6.172;2022-09-30T13:15:55;15.50;99.90
16038;DHT22;8123;50.906;6.172;2022-09-30T13:23:51;15.50;99.90
16038;DHT22;8123;50.906;6.172;2022-09-30T13:28:49;15.50;99.90
16038;DHT22;8123;50.906;6.172;2022-09-30T13:31:22;15.50;99.90
16038;DHT22;8123;50.906;6.172;2022-09-30T13:41:48;15.70;99.90
16038;DHT22;8123;50.906;6.172;2022-09-30T13:44:20;15.70;99.90
16038;DHT22;8123;50.906;6.172;2022-09-30T13:46:53;15.70;99.90
16038;DHT22;8123;50.906;6.172;2022-09-30T13:49:25;15.70;99.90
16038;DHT22;8123;50.906;6.172;2022-09-30T13:51:55;15.70;99.90
16038;DHT22;8123;50.906;6.172;2022-09-30T13:54:31;15.70;99.90
16038;DHT22;8123;50.906;6.172;2022-09-30T13:57:01;15.80;99.90
16038;DHT22;8123;50.906;6.172;2022-09-30T14:11:14;15.80;99.90
16038;DHT22;8123;50.906;6.172;2022-09-30T14:14:05;15.70;99.90
16038;DHT22;8123;50.906;6.172;2022-09-30T14:22:05;15.70;99.90
16038;DHT22;8123;50.906;6.172;2022-09-30T14:24:34;15.80;99.90
16038;DHT22;8123;50.906;6.172;2022-09-30T14:30:00;15.90;99.90
16038;DHT22;8123;50.906;6.172;2022-09-30T14:32:54;15.80;99.90
16038;DHT22;8123;50.906;6.172;2022-09-30T14:35:31;15.70;99.90
16038;DHT22;8123;50.906;6.172;2022-09-30T14:40:31;15.70;99.90
16038;DHT22;8123;50.906;6.172;2022-09-30T14:43:04;15.70;99.90
16038;DHT22;8123;50.906;6.172;2022-09-30T14:45:33;15.60;99.90
16038;DHT22;8123;50.906;6.172;2022-09-30T14:48:21;15.70;99.90
16038;DHT22;8123;50.906;6.172;2022-09-30T14:53:33;15.70;99.90
16038;DHT22;8123;50.906;6.172;2022-09-30T14:56:01;15.70;99.90
16038;DHT22;8123;50.906;6.172;2022-09-30T14:58:39;15.70;99.90
16038;DHT22;8123;50.906;6.172;2022-09-30T15:01:15;15.70;99.90
16038;DHT22;8123;50.906;6.172;2022-09-30T15:03:53;15.80;99.90
16038;DHT22;8123;50.906;6.172;2022-09-30T15:06:25;15.80;99.90
16038;DHT22;8123;50.906;6.172;2022-09-30T15:09:05;15.70;99.90
16038;DHT22;8123;50.906;6.172;2022-09-30T15:11:33;15.70;99.90
16038;DHT22;8123;50.906;6.172;2022-09-30T15:14:04;15.70;99.90
16038;DHT22;8123;50.906;6.172;2022-09-30T15:16:31;15.80;99.90
16038;DHT22;8123;50.906;6.172;2022-09-30T15:18:57;15.80;99.90
16038;DHT22;8123;50.906;6.172;2022-09-30T15:21:27;15.80;99.90
16038;DHT22;8123;50.906;6.172;2022-09-30T15:23:56;15.70;99.90
16038;DHT22;8123;50.906;6.172;2022-09-30T15:26:24;15.80;99.90
16038;DHT22;8123;50.906;6.172;2022-09-30T15:28:51;15.70;99.90
16038;DHT22;8123;50.906;6.172;2022-09-30T15:31:25;15.70;99.90
16038;DHT22;8123;50.906;6.172;2022-09-30T15:34:06;15.70;99.90
16038;DHT22;8123;50.906;6.172;2022-09-30T15:36:37;15.60;99.90
16038;DHT22;8123;50.906;6.172;2022-09-30T15:39:04;15.60;99.90
16038;DHT22;8123;50.906;6.172;2022-09-30T15:41:37;15.60;99.90
16038;DHT22;8123;50.906;6.172;2022-09-30T15:44:14;15.60;99.90
16038;DHT22;8123;50.906;6.172;2022-09-30T15:47:01;15.50;99.90
16038;DHT22;8123;50.906;6.172;2022-09-30T15:54:53;15.30;99.90
16038;DHT22;8123;50.906;6.172;2022-09-30T15:57:51;15.30;99.90
16038;DHT22;8123;50.906;6.172;2022-09-30T16:00:31;15.20;99.90
16038;DHT22;8123;50.906;6.172;2022-09-30T16:05:51;15.20;99.90
16038;DHT22;8123;50.906;6.172;2022-09-30T16:08:26;15.10;99.90
16038;DHT22;8123;50.906;6.172;2022-09-30T16:10:55;15.10;99.90
16038;DHT22;8123;50.906;6.172;2022-09-30T16:13:26;15.10;99.90
16038;DHT22;8123;50.906;6.172;2022-09-30T16:15:55;15.10;99.90
16038;DHT22;8123;50.906;6.172;2022-09-30T16:18:28;15.10;99.90
16038;DHT22;8123;50.906;6.172;2022-09-30T16:21:02;15.10;99.90
16038;DHT22;8123;50.906;6.172;2022-09-30T16:23:33;15.10;99.90
16038;DHT22;8123;50.906;6.172;2022-09-30T16:26:32;15.00;99.90
16038;DHT22;8123;50.906;6.172;2022-09-30T16:28:57;15.00;99.90
16038;DHT22;8123;50.906;6.172;2022-09-30T16:31:27;14.90;99.90
16038;DHT22;8123;50.906;6.172;2022-09-30T16:33:54;14.90;99.90
16038;DHT22;8123;50.906;6.172;2022-09-30T16:36:20;14.80;99.90
16038;DHT22;8123;50.906;6.172;2022-09-30T16:38:45;14.80;99.90
16038;DHT22;8123;50.906;6.172;2022-09-30T16:41:11;14.80;99.90
16038;DHT22;8123;50.906;6.172;2022-09-30T16:43:37;14.80;99.90
16038;DHT22;8123;50.906;6.172;2022-09-30T16:46:04;14.70;99.90
16038;DHT22;8123;50.906;6.172;2022-09-30T16:48:29;14.70;99.90
16038;DHT22;8123;50.906;6.172;2022-09-30T16:51:14;14.60;99.90
16038;DHT22;8123;50.906;6.172;2022-09-30T16:53:41;14.60;99.90
16038;DHT22;8123;50.906;6.172;2022-09-30T16:56:18;14.50;99.90
16038;DHT22;8123;50.906;6.172;2022-09-30T16:58:44;14.40;99.90
16038;DHT22;8123;50.906;6.172;2022-09-30T17:01:24;14.30;99.90
16038;DHT22;8123;50.906;6.172;2022-09-30T17:03:51;14.20;99.90
16038;DHT22;8123;50.906;6.172;2022-09-30T17:06:19;14.20;99.90
16038;DHT22;8123;50.906;6.172;2022-09-30T17:08:48;14.10;99.90
16038;DHT22;8123;50.906;6.172;2022-09-30T17:11:13;14.10;99.90
16038;DHT22;8123;50.906;6.172;2022-09-30T17:13:39;14.00;99.90
16038;DHT22;8123;50.906;6.172;2022-09-30T17:16:05;13.90;99.90
16038;DHT22;8123;50.906;6.172;2022-09-30T17:18:31;13.90;99.90
16038;DHT22;8123;50.906;6.172;2022-09-30T17:20:57;13.80;99.90
16038;DHT22;8123;50.906;6.172;2022-09-30T17:23:24;13.70;99.90
16038;DHT22;8123;50.906;6.172;2022-09-30T17:25:50;13.60;99.90
16038;DHT22;8123;50.906;6.172;2022-09-30T17:28:16;13.60;99.90
16038;DHT22;8123;50.906;6.172;2022-09-30T17:30:43;13.50;99.90
16038;DHT22;8123;50.906;6.172;2022-09-30T17:33:09;13.60;99.90
16038;DHT22;8123;50.906;6.172;2022-09-30T17:35:36;13.50;99.90
16038;DHT22;8123;50.906;6.172;2022-09-30T17:38:12;13.50;99.90
16038;DHT22;8123;50.906;6.172;2022-09-30T17:40:38;13.50;99.90
16038;DHT22;8123;50.906;6.172;2022-09-30T17:43:22;13.50;99.90
16038;DHT22;8123;50.906;6.172;2022-09-30T17:45:49;13.40;99.90
16038;DHT22;8123;50.906;6.172;2022-09-30T17:48:16;13.40;99.90
16038;DHT22;8123;50.906;6.172;2022-09-30T17:50:45;13.30;99.90
16038;DHT22;8123;50.906;6.172;2022-09-30T17:53:15;13.30;99.90
16038;DHT22;8123;50.906;6.172;2022-09-30T17:55:45;13.20;99.90
16038;DHT22;8123;50.906;6.172;2022-09-30T17:58:16;13.20;99.90
16038;DHT22;8123;50.906;6.172;2022-09-30T18:00:41;13.20;99.90
16038;DHT22;8123;50.906;6.172;2022-09-30T18:03:08;13.20;99.90
16038;DHT22;8123;50.906;6.172;2022-09-30T18:05:34;13.20;99.90
16038;DHT22;8123;50.906;6.172;2022-09-30T18:08:00;13.10;99.90
16038;DHT22;8123;50.906;6.172;2022-09-30T18:10:26;13.10;99.90
16038;DHT22;8123;50.906;6.172;2022-09-30T18:12:53;13.10;99.90
16038;DHT22;8123;50.906;6.172;2022-09-30T18:15:20;13.00;99.90
16038;DHT22;8123;50.906;6.172;2022-09-30T18:17:46;13.00;99.90
16038;DHT22;8123;50.906;6.172;2022-09-30T18:20:13;13.10;99.90
16038;DHT22;8123;50.906;6.172;2022-09-30T18:22:39;13.10;99.90
16038;DHT22;8123;50.906;6.172;2022-09-30T18:25:05;13.10;99.90
16038;DHT22;8123;50.906;6.172;2022-09-30T18:27:53;13.10;99.90
16038;DHT22;8123;50.906;6.172;2022-09-30T18:30:20;13.10;99.90
16038;DHT22;8123;50.906;6.172;2022-09-30T18:32:47;13.00;99.90
16038;DHT22;8123;50.906;6.172;2022-09-30T18:35:14;12.90;99.90
16038;DHT22;8123;50.906;6.172;2022-09-30T18:37:41;12.90;99.90
16038;DHT22;8123;50.906;6.172;2022-09-30T18:40:08;13.00;99.90
16038;DHT22;8123;50.906;6.172;2022-09-30T18:42:34;12.90;99.90
16038;DHT22;8123;50.906;6.172;2022-09-30T18:45:03;12.90;99.90
16038;DHT22;8123;50.906;6.172;2022-09-30T18:47:28;13.00;99.90
16038;DHT22;8123;50.906;6.172;2022-09-30T18:49:57;12.90;99.90
16038;DHT22;8123;50.906;6.172;2022-09-30T18:52:22;12.80;99.90
16038;DHT22;8123;50.906;6.172;2022-09-30T18:54:48;12.70;99.90
16038;DHT22;8123;50.906;6.172;2022-09-30T18:57:15;12.70;99.90
16038;DHT22;8123;50.906;6.172;2022-09-30T18:59:41;12.60;99.90
16038;DHT22;8123;50.906;6.172;2022-09-30T19:02:13;12.60;99.90
16038;DHT22;8123;50.906;6.172;2022-09-30T19:04:39;12.70;99.90
16038;DHT22;8123;50.906;6.172;2022-09-30T19:07:04;12.60;99.90
16038;DHT22;8123;50.906;6.172;2022-09-30T19:09:30;12.60;99.90
16038;DHT22;8123;50.906;6.172;2022-09-30T19:11:56;12.50;99.90
16038;DHT22;8123;50.906;6.172;2022-09-30T19:14:22;12.50;99.90
16038;DHT22;8123;50.906;6.172;2022-09-30T19:16:48;12.50;99.90
16038;DHT22;8123;50.906;6.172;2022-09-30T19:19:15;12.50;99.90
16038;DHT22;8123;50.906;6.172;2022-09-30T19:21:42;12.50;99.90
16038;DHT22;8123;50.906;6.172;2022-09-30T19:24:09;12.40;99.90
16038;DHT22;8123;50.906;6.172;2022-09-30T19:26:36;12.30;99.90